createdAt,value
2022-11-04T00:00:00.913Z,87.2
2022-11-04T00:01:01.118Z,87.2
2022-11-04T00:02:01.262Z,87.3
2022-11-04T00:03:00.367Z,87.2
2022-11-04T00:04:00.526Z,87.3
2022-11-04T00:05:00.643Z,87.2
2022-11-04T00:06:00.779Z,87.1
2022-11-04T00:07:00.934Z,87.1
2022-11-04T00:08:01.088Z,87.2
2022-11-04T00:09:01.259Z,87.3
2022-11-04T00:10:00.366Z,87.4
2022-11-04T00:11:00.544Z,87.6
2022-11-04T00:12:00.670Z,87.6
2022-11-04T00:13:00.819Z,87.7
2022-11-04T00:14:00.976Z,87.6
2022-11-04T00:15:01.148Z,87.6
2022-11-04T00:16:00.269Z,87.6
2022-11-04T00:17:00.406Z,87.5
2022-11-04T00:18:00.558Z,87.4
2022-11-04T00:19:00.704Z,87.3
2022-11-04T00:20:00.878Z,87.3
2022-11-04T00:21:01.010Z,87.4
2022-11-04T00:22:01.158Z,87.5
2022-11-04T00:23:00.316Z,87.7
2022-11-04T00:24:00.458Z,87.7
2022-11-04T00:25:00.616Z,87.6
2022-11-04T00:26:00.778Z,87.5
2022-11-04T00:27:00.897Z,87.5
2022-11-04T00:28:01.046Z,87.6
2022-11-04T00:29:01.214Z,87.8
2022-11-04T00:30:00.327Z,88
2022-11-04T00:31:00.465Z,87.9
2022-11-04T00:32:00.616Z,87.8
2022-11-04T00:33:00.779Z,87.7
2022-11-04T00:34:00.943Z,87.5
2022-11-04T00:35:01.063Z,87.6
2022-11-04T00:36:01.209Z,87.8
2022-11-04T00:37:00.365Z,87.9
2022-11-04T00:38:00.509Z,87.8
2022-11-04T00:39:00.677Z,87.7
2022-11-04T00:40:00.789Z,87.6
2022-11-04T00:41:00.947Z,87.6
2022-11-04T00:42:01.096Z,87.7
2022-11-04T00:43:01.254Z,87.8
2022-11-04T00:44:00.402Z,87.8
2022-11-04T00:45:00.560Z,87.8
2022-11-04T00:46:00.694Z,87.7
2022-11-04T00:47:00.842Z,87.6
2022-11-04T00:48:00.991Z,87.7
2022-11-04T00:49:01.155Z,87.8
2022-11-04T00:50:00.297Z,87.8
2022-11-04T00:51:00.468Z,87.8
2022-11-04T00:52:00.577Z,87.8
2022-11-04T00:53:00.733Z,87.8
2022-11-04T00:54:00.878Z,87.8
2022-11-04T00:55:01.051Z,87.8
2022-11-04T00:56:01.168Z,87.9
2022-11-04T00:57:00.306Z,88
2022-11-04T00:58:00.442Z,88.1
2022-11-04T00:59:00.592Z,87.9
2022-11-04T01:00:00.755Z,87.9
2022-11-04T01:01:01.096Z,88.1
2022-11-04T01:02:01.264Z,88.3
2022-11-04T01:03:01.199Z,88.1
2022-11-04T01:04:00.349Z,87.7
2022-11-04T01:05:00.503Z,87.5
2022-11-04T01:06:00.675Z,87.5
2022-11-04T01:07:00.803Z,87.5
2022-11-04T01:08:00.943Z,87.7
2022-11-04T01:09:01.103Z,87.8
2022-11-04T01:10:01.245Z,88.1
2022-11-04T01:11:00.429Z,88.1
2022-11-04T01:12:00.547Z,88.2
2022-11-04T01:13:00.694Z,88.2
2022-11-04T01:14:00.836Z,88.3
2022-11-04T01:15:00.982Z,88.3
2022-11-04T01:16:01.162Z,88.5
2022-11-04T01:17:00.286Z,88.6
2022-11-04T01:18:00.430Z,88.6
2022-11-04T01:19:00.581Z,88.6
2022-11-04T01:20:00.726Z,88.6
2022-11-04T01:21:00.896Z,88.6
2022-11-04T01:22:01.051Z,88.7
2022-11-04T01:23:01.176Z,88.9
2022-11-04T01:24:00.332Z,89
2022-11-04T01:25:00.468Z,89.2
2022-11-04T01:26:00.618Z,89.2
2022-11-04T01:27:00.786Z,89.3
2022-11-04T01:28:00.914Z,89.3
2022-11-04T01:29:01.071Z,89.3
2022-11-04T01:30:01.220Z,89.5
2022-11-04T01:31:00.356Z,89.6
2022-11-04T01:32:00.521Z,89.7
2022-11-04T01:33:00.647Z,89.7
2022-11-04T01:34:00.796Z,89.7
2022-11-04T01:35:00.939Z,89.7
2022-11-04T01:36:01.090Z,89.7
2022-11-04T01:37:01.263Z,89.5
2022-11-04T01:38:00.399Z,89.5
2022-11-04T01:39:00.534Z,89.4
2022-11-04T01:40:00.697Z,89.3
2022-11-04T01:41:00.850Z,89.3
2022-11-04T01:42:01.088Z,89.3
2022-11-04T01:43:01.143Z,89.2
2022-11-04T01:44:00.291Z,89.2
2022-11-04T01:45:00.445Z,89
2022-11-04T01:46:00.594Z,89
2022-11-04T01:47:00.765Z,89
2022-11-04T01:48:00.892Z,89.1
2022-11-04T01:49:01.045Z,89.3
2022-11-04T01:50:01.184Z,89.4
2022-11-04T01:51:00.346Z,89.4
2022-11-04T01:52:00.495Z,89.3
2022-11-04T01:53:00.653Z,89.2
2022-11-04T01:54:00.776Z,89.1
2022-11-04T01:55:00.928Z,89.1
2022-11-04T01:56:01.078Z,89
2022-11-04T01:57:01.230Z,88.9
2022-11-04T01:58:00.412Z,88.8
2022-11-04T01:59:00.521Z,88.8
2022-11-04T02:00:00.663Z,88.9
2022-11-04T02:01:00.870Z,89.1
2022-11-04T02:02:01.172Z,89.2
2022-11-04T02:03:01.139Z,89.3
2022-11-04T02:04:00.254Z,89.4
2022-11-04T02:05:00.404Z,89.5
2022-11-04T02:06:00.553Z,89.7
2022-11-04T02:07:00.688Z,89.8
2022-11-04T02:08:00.879Z,89.9
2022-11-04T02:09:01.038Z,89.9
2022-11-04T02:10:01.142Z,90
2022-11-04T02:11:00.283Z,90.1
2022-11-04T02:12:00.426Z,90.2
2022-11-04T02:13:00.592Z,90.3
2022-11-04T02:14:00.727Z,90.3
2022-11-04T02:15:00.866Z,90.3
2022-11-04T02:16:01.023Z,90.4
2022-11-04T02:17:01.168Z,90.4
2022-11-04T02:18:00.355Z,90.4
2022-11-04T02:19:00.476Z,90.4
2022-11-04T02:20:00.616Z,90.4
2022-11-04T02:21:00.753Z,90.5
2022-11-04T02:22:00.898Z,90.5
2022-11-04T02:23:01.083Z,90.5
2022-11-04T02:24:01.214Z,90.5
2022-11-04T02:25:00.374Z,90.5
2022-11-04T02:26:00.558Z,90.5
2022-11-04T02:27:00.680Z,90.5
2022-11-04T02:28:00.822Z,90.5
2022-11-04T02:29:00.972Z,90.5
2022-11-04T02:30:01.095Z,90.5
2022-11-04T02:31:01.239Z,90.4
2022-11-04T02:32:00.386Z,90.4
2022-11-04T02:33:00.563Z,90.4
2022-11-04T02:34:00.676Z,90.4
2022-11-04T02:35:00.833Z,90.4
2022-11-04T02:36:00.981Z,90.4
2022-11-04T02:37:01.127Z,90.4
2022-11-04T02:38:00.296Z,90.4
2022-11-04T02:39:00.418Z,90.4
2022-11-04T02:40:00.561Z,90.4
2022-11-04T02:41:00.717Z,90.4
2022-11-04T02:42:00.862Z,90.4
2022-11-04T02:43:01.032Z,90.4
2022-11-04T02:44:01.150Z,90.4
2022-11-04T02:45:00.304Z,90.3
2022-11-04T02:46:00.447Z,90.3
2022-11-04T02:47:00.598Z,90.3
2022-11-04T02:48:00.763Z,90.4
2022-11-04T02:49:00.891Z,90.5
2022-11-04T02:50:01.093Z,90.5
2022-11-04T02:51:01.178Z,90.5
2022-11-04T02:52:00.321Z,90.5
2022-11-04T02:53:00.501Z,90.5
2022-11-04T02:54:00.625Z,90.5
2022-11-04T02:55:00.775Z,90.6
2022-11-04T02:56:00.910Z,90.6
2022-11-04T02:57:01.064Z,90.6
2022-11-04T02:58:01.242Z,90.6
2022-11-04T02:59:00.468Z,90.7
2022-11-04T03:00:00.537Z,90.7
2022-11-04T03:01:00.698Z,90.7
2022-11-04T03:02:00.922Z,90.7
2022-11-04T03:03:00.977Z,90.7
2022-11-04T03:04:01.097Z,90.7
2022-11-04T03:05:01.242Z,90.6
2022-11-04T03:06:00.405Z,90.6
2022-11-04T03:07:00.605Z,90.6
2022-11-04T03:08:00.713Z,90.5
2022-11-04T03:09:00.840Z,90.5
2022-11-04T03:10:00.985Z,90.5
2022-11-04T03:11:01.135Z,90.5
2022-11-04T03:12:00.294Z,90.6
2022-11-04T03:13:00.457Z,90.6
2022-11-04T03:14:00.582Z,90.7
2022-11-04T03:15:00.741Z,90.8
2022-11-04T03:16:00.881Z,90.8
2022-11-04T03:17:01.029Z,90.8
2022-11-04T03:18:01.181Z,90.7
2022-11-04T03:19:00.303Z,90.8
2022-11-04T03:20:00.462Z,90.8
2022-11-04T03:21:00.594Z,90.6
2022-11-04T03:22:00.751Z,90.5
2022-11-04T03:23:00.910Z,90.2
2022-11-04T03:24:01.040Z,90.1
2022-11-04T03:25:01.186Z,89.8
2022-11-04T03:26:00.339Z,89.6
2022-11-04T03:27:00.479Z,89.5
2022-11-04T03:28:00.642Z,89.4
2022-11-04T03:29:00.758Z,89.4
2022-11-04T03:30:00.971Z,89.3
2022-11-04T03:31:01.058Z,89.1
2022-11-04T03:32:01.195Z,89.1
2022-11-04T03:33:00.362Z,89
2022-11-04T03:34:00.518Z,88.9
2022-11-04T03:35:00.659Z,88.6
2022-11-04T03:36:00.811Z,88.4
2022-11-04T03:37:00.954Z,88.3
2022-11-04T03:38:01.098Z,88.2
2022-11-04T03:39:01.272Z,88.1
2022-11-04T03:40:00.386Z,87.9
2022-11-04T03:41:00.541Z,87.8
2022-11-04T03:42:00.685Z,87.7
2022-11-04T03:43:00.836Z,87.6
2022-11-04T03:44:01.013Z,87.6
2022-11-04T03:45:01.131Z,87.5
2022-11-04T03:46:00.270Z,87.5
2022-11-04T03:47:00.420Z,87.3
2022-11-04T03:48:00.569Z,87.2
2022-11-04T03:49:00.726Z,87.2
2022-11-04T03:50:00.879Z,87.2
2022-11-04T03:51:01.010Z,87.4
2022-11-04T03:52:01.145Z,87.4
2022-11-04T03:53:00.292Z,87.5
2022-11-04T03:54:00.431Z,87.6
2022-11-04T03:55:00.602Z,87.5
2022-11-04T03:56:00.743Z,87.7
2022-11-04T03:57:00.886Z,87.7
2022-11-04T03:58:01.027Z,88
2022-11-04T03:59:01.187Z,87.9
2022-11-04T04:00:00.348Z,88
2022-11-04T04:01:00.563Z,88.1
2022-11-04T04:02:00.822Z,88.2
2022-11-04T04:03:00.758Z,88.4
2022-11-04T04:04:00.913Z,88.5
2022-11-04T04:05:01.072Z,88.7
2022-11-04T04:06:01.192Z,88.8
2022-11-04T04:07:00.327Z,88.8
2022-11-04T04:08:00.485Z,88.9
2022-11-04T04:09:00.616Z,88.9
2022-11-04T04:10:00.787Z,89
2022-11-04T04:11:00.931Z,89
2022-11-04T04:12:01.065Z,89.1
2022-11-04T04:13:01.218Z,89.1
2022-11-04T04:14:00.365Z,89.1
2022-11-04T04:15:00.537Z,89.2
2022-11-04T04:16:00.695Z,89.2
2022-11-04T04:17:00.855Z,89.3
2022-11-04T04:18:00.962Z,89.4
2022-11-04T04:19:01.123Z,89.5
2022-11-04T04:20:00.265Z,89.5
2022-11-04T04:21:00.433Z,89.6
2022-11-04T04:22:00.561Z,89.7
2022-11-04T04:23:00.706Z,89.8
2022-11-04T04:24:00.850Z,89.9
2022-11-04T04:25:01.005Z,90
2022-11-04T04:26:01.167Z,90.1
2022-11-04T04:27:00.293Z,90.2
2022-11-04T04:28:00.431Z,90.2
2022-11-04T04:29:00.590Z,90.3
2022-11-04T04:30:00.743Z,90.4
2022-11-04T04:31:00.912Z,90.5
2022-11-04T04:32:01.029Z,90.5
2022-11-04T04:33:01.180Z,90.6
2022-11-04T04:34:00.332Z,90.6
2022-11-04T04:35:00.472Z,90.7
2022-11-04T04:36:00.640Z,90.8
2022-11-04T04:37:00.777Z,90.9
2022-11-04T04:38:00.922Z,90.9
2022-11-04T04:39:01.068Z,91
2022-11-04T04:40:01.227Z,91
2022-11-04T04:41:00.381Z,91.1
2022-11-04T04:42:00.506Z,91.1
2022-11-04T04:43:00.660Z,91.2
2022-11-04T04:44:00.810Z,91.2
2022-11-04T04:45:00.964Z,91.3
2022-11-04T04:46:01.131Z,91.4
2022-11-04T04:48:00.364Z,91.5
2022-11-04T04:49:00.518Z,91.4
2022-11-04T04:50:00.655Z,91.5
2022-11-04T04:51:00.835Z,91.5
2022-11-04T04:52:00.961Z,91.5
2022-11-04T04:53:01.113Z,91.6
2022-11-04T04:54:00.274Z,91.6
2022-11-04T04:55:00.419Z,91.6
2022-11-04T04:56:00.587Z,91.6
2022-11-04T04:57:00.711Z,91.7
2022-11-04T04:58:00.853Z,91.7
2022-11-04T04:59:01.001Z,91.7
2022-11-04T05:00:01.141Z,91.7
2022-11-04T05:01:00.410Z,91.8
2022-11-04T05:02:00.606Z,91.8
2022-11-04T05:03:00.608Z,91.8
2022-11-04T05:04:00.755Z,91.9
2022-11-04T05:05:00.942Z,91.9
2022-11-04T05:06:01.074Z,91.9
2022-11-04T05:07:01.199Z,91.9
2022-11-04T05:08:00.334Z,91.9
2022-11-04T05:09:00.490Z,91.9
2022-11-04T05:10:00.645Z,91.9
2022-11-04T05:11:00.812Z,92
2022-11-04T05:12:00.937Z,92
2022-11-04T05:13:01.087Z,92
2022-11-04T05:14:01.241Z,92
2022-11-04T05:15:00.376Z,92
2022-11-04T05:16:00.556Z,92.1
2022-11-04T05:17:00.672Z,92.1
2022-11-04T05:18:00.828Z,92.1
2022-11-04T05:19:00.972Z,92.2
2022-11-04T05:20:01.128Z,92.2
2022-11-04T05:21:00.294Z,92.2
2022-11-04T05:22:00.411Z,92.2
2022-11-04T05:23:00.571Z,92.2
2022-11-04T05:24:00.721Z,92.2
2022-11-04T05:25:00.867Z,92.2
2022-11-04T05:26:01.035Z,92.3
2022-11-04T05:27:01.176Z,92.3
2022-11-04T05:28:00.306Z,92.3
2022-11-04T05:29:00.536Z,92.2
2022-11-04T05:30:00.603Z,92.2
2022-11-04T05:31:00.768Z,92.2
2022-11-04T05:32:00.890Z,92.3
2022-11-04T05:33:04.660Z,92.3
2022-11-04T05:34:01.182Z,92.3
2022-11-04T05:35:00.336Z,92.3
2022-11-04T05:36:00.514Z,92.4
2022-11-04T05:37:00.638Z,92.4
2022-11-04T05:38:00.785Z,92.4
2022-11-04T05:39:00.930Z,92.4
2022-11-04T05:40:01.079Z,92.4
2022-11-04T05:41:01.266Z,92.4
2022-11-04T05:42:00.378Z,92.4
2022-11-04T05:43:00.537Z,92.4
2022-11-04T05:44:00.699Z,92.5
2022-11-04T05:45:00.844Z,92.5
2022-11-04T05:46:01.011Z,92.5
2022-11-04T05:47:01.145Z,92.5
2022-11-04T05:48:00.285Z,92.5
2022-11-04T05:49:00.425Z,92.5
2022-11-04T05:50:00.578Z,92.5
2022-11-04T05:51:00.749Z,92.5
2022-11-04T05:52:00.888Z,92.5
2022-11-04T05:53:01.022Z,92.5
2022-11-04T05:54:01.159Z,92.5
2022-11-04T05:55:00.323Z,92.5
2022-11-04T05:56:00.476Z,92.6
2022-11-04T05:57:00.607Z,92.6
2022-11-04T05:58:00.763Z,92.6
2022-11-04T05:59:00.918Z,92.6
2022-11-04T06:00:01.092Z,92.6
2022-11-04T06:01:01.216Z,92.6
2022-11-04T06:02:00.539Z,92.6
2022-11-04T06:03:00.526Z,92.6
2022-11-04T06:04:00.649Z,92.6
2022-11-04T06:05:00.817Z,92.6
2022-11-04T06:06:00.968Z,92.6
2022-11-04T06:07:01.090Z,92.6
2022-11-04T06:08:01.238Z,92.7
2022-11-04T06:09:00.375Z,92.7
2022-11-04T06:10:00.535Z,92.7
2022-11-04T06:11:00.714Z,92.7
2022-11-04T06:12:00.819Z,92.7
2022-11-04T06:13:00.972Z,92.7
2022-11-04T06:14:01.112Z,92.7
2022-11-04T06:16:00.372Z,92.7
2022-11-04T06:17:00.601Z,92.7
2022-11-04T06:18:00.659Z,92.7
2022-11-04T06:19:05.780Z,92.7
2022-11-04T06:20:00.940Z,92.7
2022-11-04T06:21:01.102Z,92.7
2022-11-04T06:22:01.248Z,92.7
2022-11-04T06:23:00.413Z,92.7
2022-11-04T06:24:00.536Z,92.7
2022-11-04T06:25:00.684Z,92.7
2022-11-04T06:26:00.820Z,92.7
2022-11-04T06:27:00.975Z,92.7
2022-11-04T06:28:01.113Z,92.7
2022-11-04T06:30:00.396Z,92.7
2022-11-04T06:31:00.503Z,92.7
2022-11-04T06:32:00.665Z,92.6
2022-11-04T06:33:00.820Z,92.6
2022-11-04T06:34:00.966Z,92.6
2022-11-04T06:35:01.153Z,92.6
2022-11-04T06:36:00.275Z,92.6
2022-11-04T06:37:00.409Z,92.6
2022-11-04T06:38:00.556Z,92.6
2022-11-04T06:39:04.726Z,92.6
2022-11-04T06:40:00.860Z,92.6
2022-11-04T06:41:01.065Z,92.6
2022-11-04T06:42:02.676Z,92.6
2022-11-04T06:43:00.327Z,92.6
2022-11-04T06:44:00.438Z,92.6
2022-11-04T06:45:00.592Z,92.6
2022-11-04T06:46:00.739Z,92.7
2022-11-04T06:47:00.887Z,92.6
2022-11-04T06:48:01.057Z,92.6
2022-11-04T06:49:01.219Z,92.7
2022-11-04T06:50:00.347Z,92.7
2022-11-04T06:51:00.486Z,92.7
2022-11-04T06:52:00.628Z,92.8
2022-11-04T06:53:00.798Z,92.7
2022-11-04T06:54:00.925Z,92.8
2022-11-04T06:55:01.070Z,92.8
2022-11-04T06:56:01.238Z,92.8
2022-11-04T06:57:00.364Z,92.8
2022-11-04T06:58:00.528Z,92.8
2022-11-04T06:59:00.696Z,92.8
2022-11-04T07:00:00.816Z,92.9
2022-11-04T07:01:01.011Z,92.9
2022-11-04T07:02:01.206Z,92.9
2022-11-04T07:03:01.256Z,92.9
2022-11-04T07:04:00.433Z,92.9
2022-11-04T07:05:00.555Z,92.9
2022-11-04T07:06:00.713Z,92.9
2022-11-04T07:07:00.857Z,92.9
2022-11-04T07:08:01.008Z,92.9
2022-11-04T07:09:01.168Z,92.9
2022-11-04T07:10:00.302Z,92.9
2022-11-04T07:11:00.441Z,92.9
2022-11-04T07:12:00.595Z,92.9
2022-11-04T07:13:00.734Z,92.9
2022-11-04T07:14:00.902Z,92.9
2022-11-04T07:15:01.029Z,92.9
2022-11-04T07:16:01.190Z,92.9
2022-11-04T07:17:00.332Z,92.8
2022-11-04T07:18:00.480Z,92.8
2022-11-04T07:19:00.646Z,92.8
2022-11-04T07:20:00.772Z,92.8
2022-11-04T07:21:04.493Z,92.8
2022-11-04T07:22:01.075Z,92.8
2022-11-04T07:23:01.234Z,92.8
2022-11-04T07:24:00.407Z,92.8
2022-11-04T07:25:00.522Z,92.8
2022-11-04T07:26:00.674Z,92.7
2022-11-04T07:28:02.353Z,92.7
2022-11-04T07:29:01.158Z,92.7
2022-11-04T07:30:00.271Z,92.7
2022-11-04T07:31:00.445Z,92.7
2022-11-04T07:32:00.558Z,92.7
2022-11-04T07:33:00.704Z,92.7
2022-11-04T07:34:00.850Z,92.8
2022-11-04T07:35:01.001Z,92.7
2022-11-04T07:36:01.167Z,92.7
2022-11-04T07:37:00.297Z,92.7
2022-11-04T07:38:00.429Z,92.7
2022-11-04T07:39:00.593Z,92.7
2022-11-04T07:40:00.735Z,92.7
2022-11-04T07:41:00.904Z,92.7
2022-11-04T07:42:01.027Z,92.7
2022-11-04T07:43:01.188Z,92.7
2022-11-04T07:44:00.309Z,92.7
2022-11-04T07:45:00.469Z,92.7
2022-11-04T07:46:00.641Z,92.7
2022-11-04T07:47:00.753Z,92.6
2022-11-04T07:48:00.895Z,92.6
2022-11-04T07:49:01.052Z,92.6
2022-11-04T07:50:04.120Z,92.6
2022-11-04T07:51:00.364Z,92.6
2022-11-04T07:52:00.493Z,92.5
2022-11-04T07:53:00.636Z,92.4
2022-11-04T07:54:00.785Z,92.4
2022-11-04T07:55:00.934Z,92.3
2022-11-04T07:56:01.103Z,92.3
2022-11-04T07:57:01.234Z,92.2
2022-11-04T07:58:00.375Z,92.1
2022-11-04T07:59:00.527Z,92
2022-11-04T08:00:00.731Z,91.9
2022-11-04T08:01:00.837Z,91.8
2022-11-04T08:02:01.110Z,91.7
2022-11-04T08:03:01.225Z,91.7
2022-11-04T08:04:00.267Z,91.6
2022-11-04T08:05:00.374Z,91.6
2022-11-04T08:06:00.529Z,91.5
2022-11-04T08:07:00.702Z,91.4
2022-11-04T08:08:00.849Z,91.2
2022-11-04T08:09:01.104Z,91.1
2022-11-04T08:10:01.125Z,91
2022-11-04T08:11:00.268Z,91
2022-11-04T08:12:00.413Z,90.9
2022-11-04T08:13:00.575Z,90.8
2022-11-04T08:14:00.716Z,90.7
2022-11-04T08:15:00.886Z,90.5
2022-11-04T08:16:01.013Z,90.4
2022-11-04T08:17:01.162Z,90.4
2022-11-04T08:18:00.311Z,90.3
2022-11-04T08:19:00.454Z,90.1
2022-11-04T08:20:00.633Z,90.1
2022-11-04T08:21:00.759Z,90.3
2022-11-04T08:22:00.896Z,90.2
2022-11-04T08:23:01.036Z,90.1
2022-11-04T08:24:01.182Z,90
2022-11-04T08:25:00.366Z,89.9
2022-11-04T08:26:00.471Z,89.8
2022-11-04T08:27:00.627Z,90
2022-11-04T08:28:01.375Z,90
2022-11-04T08:29:00.942Z,90
2022-11-04T08:30:01.063Z,90
2022-11-04T08:31:01.218Z,90.1
2022-11-04T08:32:00.355Z,90.1
2022-11-04T08:33:00.515Z,90.1
2022-11-04T08:34:00.664Z,90.2
2022-11-04T08:35:00.828Z,90.2
2022-11-04T08:36:00.966Z,90.2
2022-11-04T08:37:01.107Z,90.3
2022-11-04T08:38:00.260Z,90.3
2022-11-04T08:39:04.456Z,90.4
2022-11-04T08:40:00.561Z,90.4
2022-11-04T08:41:00.700Z,90.2
2022-11-04T08:42:01.106Z,89.7
2022-11-04T08:43:00.981Z,89.5
2022-11-04T08:44:01.174Z,89.6
2022-11-04T08:45:00.272Z,89.8
2022-11-04T08:46:00.442Z,89.9
2022-11-04T08:47:00.592Z,89.9
2022-11-04T08:48:05.361Z,89.9
2022-11-04T08:49:01.152Z,89.8
2022-11-04T08:50:01.025Z,89.9
2022-11-04T08:51:01.162Z,89.7
2022-11-04T08:52:00.348Z,89.6
2022-11-04T08:53:00.455Z,89.6
2022-11-04T08:54:00.605Z,89.6
2022-11-04T08:55:00.747Z,89.7
2022-11-04T08:56:00.905Z,89.7
2022-11-04T08:57:01.067Z,89.6
2022-11-04T08:58:01.203Z,89.3
2022-11-04T08:59:00.347Z,89.1
2022-11-04T09:00:00.494Z,89.1
2022-11-04T09:01:00.652Z,88.9
2022-11-04T09:02:00.806Z,88.1
2022-11-04T09:03:00.954Z,88
2022-11-04T09:04:01.114Z,88.3
2022-11-04T09:05:01.236Z,88.6
2022-11-04T09:06:00.390Z,88.8
2022-11-04T09:07:05.203Z,88.9
2022-11-04T09:08:00.708Z,89.1
2022-11-04T09:09:00.832Z,89.3
2022-11-04T09:10:00.990Z,89.5
2022-11-04T09:11:01.135Z,89.1
2022-11-04T09:12:00.274Z,88.3
2022-11-04T09:13:00.439Z,88.1
2022-11-04T09:14:00.590Z,88.5
2022-11-04T09:15:00.718Z,88.7
2022-11-04T09:16:00.871Z,88.7
2022-11-04T09:17:01.012Z,88.6
2022-11-04T09:18:01.154Z,88.6
2022-11-04T09:19:00.338Z,88.7
2022-11-04T09:20:00.452Z,88.8
2022-11-04T09:21:00.615Z,88.8
2022-11-04T09:22:00.743Z,88.7
2022-11-04T09:23:00.895Z,88.3
2022-11-04T09:24:01.072Z,88.3
2022-11-04T09:25:01.184Z,88.4
2022-11-04T09:26:00.349Z,88.6
2022-11-04T09:27:00.481Z,88.4
2022-11-04T09:28:00.624Z,88.4
2022-11-04T09:29:00.773Z,88.4
2022-11-04T09:30:00.939Z,88.4
2022-11-04T09:31:01.090Z,88.6
2022-11-04T09:32:01.220Z,88.8
2022-11-04T09:33:00.364Z,88.9
2022-11-04T09:34:00.504Z,88.8
2022-11-04T09:35:00.646Z,89
2022-11-04T09:36:00.820Z,88.7
2022-11-04T09:37:00.942Z,88.5
2022-11-04T09:38:01.085Z,88.4
2022-11-04T09:39:01.235Z,88.4
2022-11-04T09:40:00.383Z,88.3
2022-11-04T09:41:00.542Z,88.3
2022-11-04T09:42:00.665Z,88.3
2022-11-04T09:43:00.813Z,88.2
2022-11-04T09:44:00.964Z,87.8
2022-11-04T09:45:21.087Z,87.8
2022-11-04T09:46:00.272Z,87.8
2022-11-04T09:47:00.440Z,87.8
2022-11-04T09:48:00.573Z,87.3
2022-11-04T09:49:00.715Z,87.1
2022-11-04T09:50:00.857Z,87.4
2022-11-04T09:51:01.012Z,87.8
2022-11-04T09:52:01.174Z,88
2022-11-04T09:53:00.316Z,88
2022-11-04T09:54:00.454Z,88.1
2022-11-04T09:55:00.630Z,88.4
2022-11-04T09:56:00.755Z,88.3
2022-11-04T09:57:00.956Z,88.3
2022-11-04T09:58:01.104Z,88.4
2022-11-04T09:59:01.208Z,88.2
2022-11-04T10:00:00.340Z,87.9
2022-11-04T10:01:00.535Z,87.5
2022-11-04T10:02:00.737Z,87.4
2022-11-04T10:03:00.778Z,87.2
2022-11-04T10:04:00.917Z,87.2
2022-11-04T10:05:01.058Z,87.1
2022-11-04T10:06:01.218Z,87.3
2022-11-04T10:07:00.385Z,87.5
2022-11-04T10:08:00.505Z,87.6
2022-11-04T10:09:00.678Z,87.7
2022-11-04T10:10:00.812Z,87.8
2022-11-04T10:11:00.950Z,87.9
2022-11-04T10:12:01.106Z,87.9
2022-11-04T10:13:01.242Z,87.6
2022-11-04T10:14:00.386Z,87.7
2022-11-04T10:15:00.545Z,87.3
2022-11-04T10:16:00.691Z,86.7
2022-11-04T10:17:00.853Z,86.5
2022-11-04T10:18:00.986Z,86.2
2022-11-04T10:19:01.127Z,86.2
2022-11-04T10:20:00.290Z,86.3
2022-11-04T10:21:00.418Z,86.5
2022-11-04T10:22:00.599Z,86.8
2022-11-04T10:23:00.723Z,86.6
2022-11-04T10:24:00.866Z,86.7
2022-11-04T10:25:01.015Z,86.9
2022-11-04T10:26:01.168Z,86.5
2022-11-04T10:27:01.035Z,85.7
2022-11-04T10:28:00.476Z,86
2022-11-04T10:29:00.633Z,86.1
2022-11-04T10:30:00.771Z,86.2
2022-11-04T10:31:00.924Z,85.6
2022-11-04T10:32:01.086Z,85.7
2022-11-04T10:33:01.232Z,85.7
2022-11-04T10:34:00.396Z,85.5
2022-11-04T10:35:00.525Z,85.6
2022-11-04T10:36:00.677Z,85.5
2022-11-04T10:37:00.829Z,85.9
2022-11-04T10:38:00.979Z,86.3
2022-11-04T10:39:01.153Z,85.4
2022-11-04T10:40:00.286Z,85.3
2022-11-04T10:41:05.949Z,85.3
2022-11-04T10:42:00.592Z,85.5
2022-11-04T10:43:00.736Z,85.9
2022-11-04T10:44:00.903Z,85.8
2022-11-04T10:45:01.058Z,86
2022-11-04T10:46:01.188Z,85.9
2022-11-04T10:47:00.321Z,85.7
2022-11-04T10:48:00.464Z,85.7
2022-11-04T10:49:00.610Z,86.2
2022-11-04T10:50:27.078Z,86.4
2022-11-04T10:51:00.918Z,86.4
2022-11-04T10:52:01.078Z,86.3
2022-11-04T10:53:01.226Z,86.4
2022-11-04T10:54:00.372Z,86.6
2022-11-04T10:55:00.518Z,86.8
2022-11-04T10:56:00.685Z,86.8
2022-11-04T10:57:00.837Z,87
2022-11-04T10:58:00.942Z,87.4
2022-11-04T10:59:01.102Z,87.7
2022-11-04T11:00:01.248Z,87.8
2022-11-04T11:01:00.433Z,87.8
2022-11-04T11:02:00.745Z,87.9
2022-11-04T11:03:00.668Z,88
2022-11-04T11:04:00.850Z,88.1
2022-11-04T11:05:00.976Z,88.1
2022-11-04T11:06:01.134Z,88.3
2022-11-04T11:07:00.270Z,88.3
2022-11-04T11:08:00.413Z,88.3
2022-11-04T11:09:00.585Z,88.3
2022-11-04T11:10:00.720Z,88.3
2022-11-04T11:11:00.867Z,88.4
2022-11-04T11:12:01.072Z,88.5
2022-11-04T11:13:01.163Z,88.5
2022-11-04T11:14:00.324Z,88.6
2022-11-04T11:15:00.483Z,88.6
2022-11-04T11:16:00.614Z,88.7
2022-11-04T11:17:00.756Z,88.7
2022-11-04T11:18:00.900Z,88.8
2022-11-04T11:19:01.063Z,88.9
2022-11-04T11:20:01.195Z,89
2022-11-04T11:21:00.332Z,88.8
2022-11-04T11:22:00.476Z,88.9
2022-11-04T11:23:04.648Z,88.8
2022-11-04T11:24:00.796Z,88.9
2022-11-04T11:25:00.929Z,88.7
2022-11-04T11:26:01.080Z,88.8
2022-11-04T11:27:01.227Z,88.9
2022-11-04T11:28:00.367Z,89
2022-11-04T11:29:00.531Z,89.1
2022-11-04T11:30:00.680Z,89.2
2022-11-04T11:31:00.837Z,89.1
2022-11-04T11:32:01.000Z,88.9
2022-11-04T11:33:01.133Z,88.8
2022-11-04T11:34:00.297Z,88.8
2022-11-04T11:35:00.413Z,88.7
2022-11-04T11:36:00.579Z,88.6
2022-11-04T11:37:00.716Z,88.6
2022-11-04T11:38:00.885Z,88.5
2022-11-04T11:39:01.047Z,88.1
2022-11-04T11:40:01.175Z,88.4
2022-11-04T11:41:23.251Z,88.6
2022-11-04T11:42:00.465Z,88.7
2022-11-04T11:43:00.623Z,88.5
2022-11-04T11:44:00.783Z,87.7
2022-11-04T11:45:00.916Z,87.6
2022-11-04T11:46:01.046Z,87.8
2022-11-04T11:47:01.202Z,87.9
2022-11-04T11:48:00.339Z,88.2
2022-11-04T11:49:00.494Z,88.4
2022-11-04T11:50:00.629Z,88.5
2022-11-04T11:51:00.759Z,88.1
2022-11-04T11:52:00.904Z,88.1
2022-11-04T11:53:01.055Z,88.3
2022-11-04T11:54:01.207Z,88.3
2022-11-04T11:55:00.369Z,88.4
2022-11-04T11:56:00.489Z,88.5
2022-11-04T11:57:13.913Z,88.6
2022-11-04T12:01:05.965Z,89
2022-11-04T12:02:00.541Z,88.6
2022-11-04T12:03:00.783Z,87.9
2022-11-04T12:09:16.478Z,87.5
2022-11-04T12:10:00.559Z,87.6
2022-11-04T12:11:00.688Z,87.6
2022-11-04T12:12:00.856Z,87.5
2022-11-04T12:13:00.997Z,87
2022-11-04T12:14:01.163Z,87.3
2022-11-04T12:15:00.284Z,87.3
2022-11-04T12:16:00.439Z,87.2
2022-11-04T12:17:00.571Z,87.1
2022-11-04T12:18:00.741Z,86.8
2022-11-04T12:19:00.905Z,86.3
2022-11-04T12:20:01.026Z,87
2022-11-04T12:21:01.176Z,87.3
2022-11-04T12:22:00.322Z,87.8
2022-11-04T12:23:00.477Z,88.1
2022-11-04T12:24:00.645Z,88.2
2022-11-04T12:25:00.783Z,88.4
2022-11-04T12:26:00.947Z,88.5
2022-11-04T12:27:01.075Z,88.6
2022-11-04T12:28:01.227Z,88.6
2022-11-04T12:29:00.394Z,88.5
2022-11-04T12:30:00.522Z,87.9
2022-11-04T12:31:00.661Z,87.6
2022-11-04T12:32:00.817Z,87.8
2022-11-04T12:33:00.971Z,88.1
2022-11-04T12:34:01.116Z,88.1
2022-11-04T12:35:01.255Z,88.2
2022-11-04T12:36:00.395Z,88.2
2022-11-04T12:37:00.541Z,88.2
2022-11-04T12:38:00.680Z,88.2
2022-11-04T12:39:00.851Z,88.1
2022-11-04T12:40:01.008Z,88.1
2022-11-04T12:42:19.726Z,87.7
2022-11-04T12:43:00.410Z,87.7
2022-11-04T12:44:00.558Z,87.7
2022-11-04T12:45:00.725Z,87.8
2022-11-04T12:46:00.849Z,87.9
2022-11-04T12:47:00.994Z,88
2022-11-04T12:48:01.136Z,88.3
2022-11-04T12:49:06.024Z,88.6
2022-11-04T12:50:00.441Z,88.6
2022-11-04T12:51:00.584Z,88.7
2022-11-04T12:52:00.729Z,88.7
2022-11-04T12:53:00.880Z,88.7
2022-11-04T12:54:01.049Z,88.6
2022-11-04T12:55:01.176Z,88.5
2022-11-04T12:56:00.317Z,88.5
2022-11-04T12:57:00.462Z,88.6
2022-11-04T12:58:00.614Z,88.6
2022-11-04T12:59:00.790Z,88.7
2022-11-04T13:00:00.908Z,88.7
2022-11-04T13:01:01.113Z,88.8
2022-11-04T13:02:01.362Z,88.9
2022-11-04T13:03:00.349Z,89.1
2022-11-04T13:04:00.524Z,89.1
2022-11-04T13:05:00.670Z,89.2
2022-11-04T13:06:00.794Z,89.3
2022-11-04T13:07:00.958Z,89.4
2022-11-04T13:08:01.118Z,89.4
2022-11-04T13:10:00.390Z,89.4
2022-11-04T13:11:00.513Z,89.5
2022-11-04T13:12:00.667Z,89.4
2022-11-04T13:13:00.827Z,89.3
2022-11-04T13:14:02.292Z,89.3
2022-11-04T13:15:01.141Z,89.1
2022-11-04T13:16:00.271Z,89
2022-11-04T13:17:00.417Z,88.9
2022-11-04T13:18:00.559Z,88.7
2022-11-04T13:19:00.728Z,88.5
2022-11-04T13:20:00.858Z,88.7
2022-11-04T13:21:02.926Z,88.8
2022-11-04T13:22:01.163Z,89
2022-11-04T13:23:03.141Z,88.8
2022-11-04T13:24:00.478Z,88.6
2022-11-04T13:25:00.608Z,88.6
2022-11-04T13:26:00.752Z,88.5
2022-11-04T13:27:00.899Z,88.2
2022-11-04T13:28:01.051Z,88.2
2022-11-04T13:29:07.516Z,88.5
2022-11-04T13:30:00.329Z,88.4
2022-11-04T13:31:00.481Z,88
2022-11-04T13:32:00.627Z,87.9
2022-11-04T13:33:00.779Z,87.8
2022-11-04T13:34:00.944Z,88
2022-11-04T13:35:01.094Z,88.1